Time;durP1;ratioP1;P1;durP2;ratioP2;P2;SDS_P1;SDS_P2;PMS_P1;PMS_P2;Temp;Humidity;BMP_temperature;BMP_pressure;BME280_temperature;BME280_humidity;BME280_pressure;Samples;Min_cycle;Max_cycle;Signal;HPM_P1;HPM_P2
2023/07/13 00:00:50;;;;;;;10.02;5.85;;;;;;;25.10;94.41;99092.41;5087813;28;20197;-72
2023/07/13 00:03:17;;;;;;;9.43;5.60;;;;;;;25.10;95.34;99095.03;5088188;28;20213;-72
2023/07/13 00:05:43;;;;;;;9.18;5.80;;;;;;;25.04;95.68;99094.81;5073169;28;20681;-72
2023/07/13 00:08:11;;;;;;;10.10;5.93;;;;;;;25.10;95.57;99087.19;5068157;28;20202;-72
2023/07/13 00:10:42;;;;;;;11.52;5.63;;;;;;;25.11;96.32;99099.28;5076965;28;20202;-72
2023/07/13 00:13:09;;;;;;;9.80;6.10;;;;;;;25.06;96.43;99098.06;5088127;28;20232;-72
2023/07/13 00:15:37;;;;;;;9.82;6.22;;;;;;;25.07;96.75;99096.22;5087791;28;20202;-72
2023/07/13 00:18:04;;;;;;;9.98;5.95;;;;;;;25.03;96.91;99093.22;5087983;28;20223;-72
2023/07/13 00:20:30;;;;;;;10.73;6.35;;;;;;;24.98;97.36;99100.88;5087818;28;20202;-72
2023/07/13 00:22:57;;;;;;;12.60;6.10;;;;;;;24.97;97.97;99099.28;5087781;28;20218;-72
2023/07/13 00:25:27;;;;;;;11.75;6.43;;;;;;;24.99;97.69;99091.25;5085479;28;20237;-72
2023/07/13 00:27:56;;;;;;;18.05;6.32;;;;;;;24.99;98.04;99092.03;5071834;28;20206;-72
2023/07/13 00:30:23;;;;;;;9.90;6.05;;;;;;;24.98;98.21;99085.19;5071528;28;20256;-72
2023/07/13 00:32:50;;;;;;;10.18;5.93;;;;;;;24.97;98.30;99083.59;5071392;28;20202;-72
2023/07/13 00:35:17;;;;;;;11.77;6.05;;;;;;;24.98;98.40;99089.63;5071386;28;20260;-72
2023/07/13 00:37:44;;;;;;;10.02;5.70;;;;;;;24.97;98.98;99086.19;5071385;28;20202;-72
2023/07/13 00:40:13;;;;;;;10.00;5.60;;;;;;;24.94;99.31;99089.22;5071162;28;20195;-72
2023/07/13 00:42:41;;;;;;;10.80;6.25;;;;;;;24.91;99.68;99084.41;5082650;28;20209;-72
2023/07/13 00:45:41;;;;;;;9.35;5.72;;;;;;;24.95;99.63;99072.50;5091290;28;20726;-72
2023/07/13 00:48:10;;;;;;;7.68;5.18;;;;;;;24.91;100.00;99073.94;5091397;28;20209;-72
2023/07/13 00:50:36;;;;;;;9.10;5.75;;;;;;;24.86;100.00;99068.50;5091036;28;20706;-72
2023/07/13 00:53:03;;;;;;;9.43;5.72;;;;;;;24.87;100.00;99078.00;5091277;28;20209;-72
2023/07/13 00:55:30;;;;;;;9.73;5.97;;;;;;;24.88;100.00;99074.34;5091434;28;20491;-72
2023/07/13 00:57:58;;;;;;;10.88;6.07;;;;;;;24.84;100.00;99073.13;5087763;28;20232;-72
2023/07/13 01:00:27;;;;;;;10.13;6.65;;;;;;;24.91;100.00;99073.16;5090599;28;20210;-72
2023/07/13 01:02:54;;;;;;;11.60;5.75;;;;;;;24.84;100.00;99067.91;5090943;28;20214;-72
2023/07/13 01:05:23;;;;;;;8.60;5.55;;;;;;;24.82;100.00;99069.94;5091111;28;20599;-72
2023/07/13 01:07:53;;;;;;;11.32;6.50;;;;;;;24.89;100.00;99065.50;5090817;28;20201;-72
2023/07/13 01:10:22;;;;;;;9.65;5.82;;;;;;;24.82;100.00;99064.72;5090848;28;20198;-72
2023/07/13 01:12:49;;;;;;;10.55;6.22;;;;;;;24.77;100.00;99061.91;5090469;28;20198;-72
2023/07/13 01:15:37;;;;;;;8.88;5.47;;;;;;;24.80;100.00;99066.72;5090776;28;20279;-72
2023/07/13 01:18:06;;;;;;;10.73;5.75;;;;;;;24.95;100.00;99063.88;5084079;28;20216;-72
2023/07/13 01:20:36;;;;;;;9.43;5.13;;;;;;;24.88;100.00;99069.13;5090656;28;20213;-72
2023/07/13 01:23:06;;;;;;;8.88;5.50;;;;;;;24.86;100.00;99065.91;5090759;28;20275;-72
2023/07/13 01:25:34;;;;;;;9.77;5.32;;;;;;;24.91;100.00;99057.44;5090699;28;20230;-72
2023/07/13 01:28:01;;;;;;;18.40;5.85;;;;;;;24.87;100.00;99067.53;5090563;28;20209;-72
2023/07/13 01:30:28;;;;;;;11.60;5.15;;;;;;;24.83;100.00;99069.72;5090471;28;20209;-72
2023/07/13 01:32:55;;;;;;;10.43;5.70;;;;;;;24.93;100.00;99061.47;5090302;28;20198;-71
2023/07/13 01:35:22;;;;;;;8.35;5.00;;;;;;;24.96;100.00;99063.69;5086789;28;20219;-71
2023/07/13 01:37:48;;;;;;;9.07;5.75;;;;;;;24.89;100.00;99064.69;5089983;28;20292;-71
2023/07/13 01:40:17;;;;;;;6.88;4.53;;;;;;;24.94;100.00;99068.31;5090132;28;20611;-71
2023/07/13 01:42:44;;;;;;;15.02;5.75;;;;;;;24.91;100.00;99070.53;5090155;28;20194;-71
2023/07/13 01:45:11;;;;;;;9.82;5.65;;;;;;;24.83;100.00;99072.34;5090261;28;20202;-71
2023/07/13 01:47:38;;;;;;;10.13;5.63;;;;;;;24.85;100.00;99065.09;5090176;28;20632;-71
2023/07/13 01:50:06;;;;;;;9.02;5.57;;;;;;;24.80;100.00;99056.25;5090230;28;20589;-72
2023/07/13 01:52:32;;;;;;;9.25;5.55;;;;;;;24.77;100.00;99067.13;5072300;28;20203;-72
2023/07/13 01:54:59;;;;;;;9.05;5.63;;;;;;;24.71;100.00;99067.94;5070033;28;20214;-72
2023/07/13 01:57:27;;;;;;;11.18;5.60;;;;;;;24.71;100.00;99067.94;5070208;28;20230;-72
2023/07/13 01:59:54;;;;;;;11.18;6.18;;;;;;;24.80;100.00;99066.72;5069476;28;20194;-72
2023/07/13 02:02:21;;;;;;;9.75;5.35;;;;;;;24.78;100.00;99068.72;5069881;28;20191;-72
2023/07/13 02:04:48;;;;;;;8.18;5.45;;;;;;;24.74;99.93;99072.75;5069656;28;20610;-72
2023/07/13 02:07:15;;;;;;;8.75;5.35;;;;;;;24.72;99.89;99082.59;5069507;28;20234;-72
2023/07/13 02:09:43;;;;;;;8.07;5.47;;;;;;;24.70;98.85;99082.03;5072186;28;20209;-72
2023/07/13 02:12:10;;;;;;;8.95;5.30;;;;;;;24.70;98.18;99082.03;5085459;28;20675;-72
2023/07/13 02:14:38;;;;;;;9.05;5.70;;;;;;;24.75;97.82;99088.22;5089746;28;20202;-72
2023/07/13 02:17:06;;;;;;;9.52;5.53;;;;;;;24.81;97.56;99078.78;5089556;28;20619;-72
2023/07/13 02:19:33;;;;;;;10.20;5.60;;;;;;;24.88;97.38;99084.81;5089830;28;20198;-72
2023/07/13 02:21:59;;;;;;;10.23;5.30;;;;;;;24.90;97.67;99087.22;5089495;28;20583;-72
2023/07/13 02:24:27;;;;;;;11.40;5.63;;;;;;;24.78;97.74;99085.25;5089316;28;20203;-72
2023/07/13 02:26:54;;;;;;;8.43;5.28;;;;;;;24.71;97.10;99088.84;5088592;28;20238;-72
2023/07/13 02:29:21;;;;;;;9.00;5.22;;;;;;;24.72;97.70;99095.69;5083398;28;20627;-72
2023/07/13 02:31:49;;;;;;;10.75;5.68;;;;;;;24.70;97.67;99092.47;5089213;28;20719;-72
2023/07/13 02:34:16;;;;;;;10.68;5.03;;;;;;;24.71;97.19;99089.66;5089434;28;20205;-72
2023/07/13 02:36:42;;;;;;;9.73;5.15;;;;;;;24.82;97.44;99091.66;5089033;28;20206;-72
2023/07/13 02:39:12;;;;;;;9.35;5.25;;;;;;;24.81;97.54;99086.63;5089477;28;20209;-72
2023/07/13 02:41:39;;;;;;;9.18;5.10;;;;;;;24.71;96.30;99094.09;5089197;28;20202;-72
2023/07/13 02:44:07;;;;;;;9.27;5.20;;;;;;;24.65;96.33;99092.28;5087006;28;20232;-72
2023/07/13 02:46:35;;;;;;;9.52;5.38;;;;;;;24.68;96.27;99091.88;5085332;28;20321;-72
2023/07/13 02:49:04;;;;;;;14.02;5.63;;;;;;;24.71;97.00;99088.84;5087961;28;20198;-72
2023/07/13 02:51:33;;;;;;;7.50;4.75;;;;;;;24.61;96.77;99092.69;5089329;28;20205;-72
2023/07/13 02:54:01;;;;;;;10.95;5.50;;;;;;;24.58;96.82;99094.88;5089116;28;20470;-72
2023/07/13 02:56:30;;;;;;;9.63;5.28;;;;;;;24.65;96.02;99093.06;5088872;28;20198;-72
2023/07/13 02:58:57;;;;;;;7.50;4.93;;;;;;;24.74;96.60;99091.88;5088807;28;20198;-72
2023/07/13 03:01:25;;;;;;;8.77;5.15;;;;;;;24.75;96.95;99084.81;5088786;28;20240;-72
2023/07/13 03:03:53;;;;;;;9.05;5.60;;;;;;;24.63;96.12;99085.41;5074099;28;20206;-72
2023/07/13 03:06:22;;;;;;;7.35;4.78;;;;;;;24.63;96.50;99090.66;5068374;28;20647;-72
2023/07/13 03:08:50;;;;;;;7.82;5.43;;;;;;;24.61;96.63;99082.22;5068351;28;20206;-72
2023/07/13 03:11:19;;;;;;;8.55;4.97;;;;;;;24.65;96.72;99079.22;5068367;28;20202;-72
2023/07/13 03:13:47;;;;;;;8.40;5.30;;;;;;;24.58;97.15;99082.63;5068202;28;20214;-72
2023/07/13 03:16:15;;;;;;;6.68;4.75;;;;;;;24.55;97.00;99082.22;5068347;28;20627;-72
2023/07/13 03:18:42;;;;;;;9.63;5.00;;;;;;;24.52;96.88;99086.06;5081385;28;20206;-72
2023/07/13 03:21:10;;;;;;;8.30;5.20;;;;;;;24.54;96.92;99094.47;5069371;28;20210;-72
2023/07/13 03:23:38;;;;;;;6.88;5.03;;;;;;;24.53;96.25;99098.09;5067978;28;20562;-72
2023/07/13 03:26:07;;;;;;;8.90;4.88;;;;;;;24.49;95.40;99094.28;5068176;28;20207;-72
2023/07/13 03:28:34;;;;;;;7.63;4.88;;;;;;;24.56;96.43;99100.31;5067931;28;20203;-72
2023/07/13 03:31:02;;;;;;;6.82;4.70;;;;;;;24.59;96.55;99092.06;5068166;28;20621;-72
2023/07/13 03:33:29;;;;;;;8.70;5.03;;;;;;;24.63;96.13;99095.09;5067826;28;20203;-72
2023/07/13 03:35:56;;;;;;;8.10;5.03;;;;;;;24.68;96.24;99090.06;5074861;28;20206;-71
2023/07/13 03:38:23;;;;;;;8.18;4.95;;;;;;;24.68;96.47;99094.50;5087976;28;20198;-72
2023/07/13 03:40:52;;;;;;;8.05;5.30;;;;;;;24.67;96.08;99090.25;5088131;28;20198;-72
2023/07/13 03:43:20;;;;;;;7.55;4.60;;;;;;;24.68;95.92;99090.06;5088222;28;20213;-72
2023/07/13 03:45:47;;;;;;;7.30;4.97;;;;;;;24.58;95.87;99100.94;5088247;28;20259;-72
2023/07/13 03:48:14;;;;;;;7.68;4.55;;;;;;;24.51;95.56;99100.09;5088500;28;20225;-72
2023/07/13 03:50:41;;;;;;;8.35;4.57;;;;;;;24.65;95.42;99105.34;5087885;28;20206;-72
2023/07/13 03:53:08;;;;;;;8.52;4.78;;;;;;;24.77;95.67;99093.28;5080820;28;20210;-72
2023/07/13 03:55:35;;;;;;;11.52;5.22;;;;;;;24.72;95.94;99095.69;5068008;28;20281;-72
2023/07/13 03:58:26;;;;;;;7.53;4.60;;;;;;;24.76;95.88;99092.47;5078028;28;20209;-72
2023/07/13 04:00:52;;;;;;;8.98;4.72;;;;;;;24.75;95.67;99092.66;5067264;28;20198;-72
2023/07/13 04:03:19;;;;;;;8.25;5.05;;;;;;;24.74;95.03;99093.69;5074059;28;20198;-72
2023/07/13 04:05:47;;;;;;;10.77;5.43;;;;;;;24.77;95.12;99095.88;5087590;28;20202;-72
2023/07/13 04:08:13;;;;;;;8.90;5.40;;;;;;;24.83;94.68;99092.47;5085717;28;20275;-72
2023/07/13 04:10:40;;;;;;;8.63;4.63;;;;;;;24.81;94.52;99094.47;5084858;28;20268;-72
2023/07/13 04:13:09;;;;;;;8.23;4.50;;;;;;;24.83;94.31;99093.25;5087882;28;20198;-72
2023/07/13 04:15:35;;;;;;;6.28;4.50;;;;;;;24.85;93.66;99096.47;5087926;28;20198;-72
2023/07/13 04:18:03;;;;;;;10.07;5.20;;;;;;;24.91;93.87;99097.47;5087654;28;20205;-72
2023/07/13 04:20:30;;;;;;;7.10;4.40;;;;;;;24.99;93.57;99106.94;5087419;28;20297;-72
2023/07/13 04:22:57;;;;;;;10.27;4.70;;;;;;;25.08;93.87;99101.28;5087427;28;20202;-72
2023/07/13 04:25:24;;;;;;;8.05;4.90;;;;;;;25.21;93.16;99108.31;5076947;28;20223;-72
2023/07/13 04:27:51;;;;;;;7.60;4.68;;;;;;;25.26;91.78;99105.09;5067461;28;20755;-72
2023/07/13 04:30:20;;;;;;;10.32;5.00;;;;;;;25.28;92.18;99111.72;5075239;28;20259;-72
2023/07/13 04:32:47;;;;;;;7.82;4.20;;;;;;;25.34;91.83;99104.88;5087554;28;20213;-72
2023/07/13 04:35:15;;;;;;;9.18;5.10;;;;;;;25.51;91.13;99111.25;5087569;28;20599;-72
2023/07/13 04:37:41;;;;;;;6.30;4.05;;;;;;;25.64;90.58;99105.16;5087572;28;20198;-72
2023/07/13 04:40:11;;;;;;;8.20;4.85;;;;;;;25.78;89.95;99107.72;5087383;28;20635;-72
2023/07/13 04:42:38;;;;;;;9.60;4.47;;;;;;;25.84;88.63;99115.56;5086242;28;20234;-72
2023/07/13 04:45:07;;;;;;;7.70;4.40;;;;;;;25.92;88.71;99122.41;5085587;28;20201;-72
2023/07/13 04:47:35;;;;;;;8.45;4.78;;;;;;;26.01;88.40;99122.97;5082469;28;20234;-73
2023/07/13 04:50:02;;;;;;;7.10;4.53;;;;;;;26.16;87.67;99124.25;5087054;28;20202;-72
2023/07/13 04:52:29;;;;;;;7.50;4.70;;;;;;;26.27;87.39;99125.41;5087309;28;20199;-73
2023/07/13 04:54:56;;;;;;;7.43;4.63;;;;;;;26.39;86.32;99128.97;5087427;28;20210;-72
2023/07/13 04:57:22;;;;;;;6.97;4.28;;;;;;;26.55;84.31;99132.09;5087212;28;20206;-72
2023/07/13 04:59:49;;;;;;;7.07;4.32;;;;;;;26.74;84.65;99125.91;5087342;28;20202;-72
2023/07/13 05:02:16;;;;;;;8.50;3.95;;;;;;;26.92;84.58;99126.97;5082947;28;20194;-72
2023/07/13 05:04:47;;;;;;;5.47;3.75;;;;;;;27.03;82.34;99126.25;5087308;28;20198;-72
2023/07/13 05:07:14;;;;;;;6.55;4.53;;;;;;;27.24;82.61;99120.59;5085730;28;20244;-72
2023/07/13 05:09:41;;;;;;;7.25;4.57;;;;;;;27.43;80.55;99123.22;5070286;28;20210;-72
2023/07/13 05:12:09;;;;;;;8.07;4.55;;;;;;;27.58;82.06;99128.09;5069174;28;20575;-72
2023/07/13 05:14:36;;;;;;;6.80;4.25;;;;;;;27.70;79.53;99129.78;5070285;28;20607;-72
2023/07/13 05:17:03;;;;;;;5.95;4.25;;;;;;;27.88;78.76;99134.22;5070216;28;20203;-72
2023/07/13 05:19:31;;;;;;;7.80;4.50;;;;;;;28.06;78.28;99138.63;5070316;28;20207;-72
2023/07/13 05:21:59;;;;;;;7.05;4.47;;;;;;;28.21;76.68;99125.88;5070447;28;20198;-73
2023/07/13 05:24:26;;;;;;;10.00;4.75;;;;;;;28.41;77.06;99127.41;5070375;28;20199;-73
2023/07/13 05:26:53;;;;;;;6.53;4.40;;;;;;;28.52;74.68;99139.81;5075738;28;20241;-73
2023/07/13 05:29:20;;;;;;;11.27;4.50;;;;;;;28.69;75.71;99136.53;5090622;28;20194;-73
2023/07/13 05:31:47;;;;;;;8.63;4.85;;;;;;;28.77;75.36;99133.53;5090419;28;20214;-73
2023/07/13 05:34:14;;;;;;;7.00;4.65;;;;;;;28.92;73.75;99139.16;5090401;28;20202;-72
2023/07/13 05:36:41;;;;;;;10.40;4.65;;;;;;;28.99;73.55;99141.66;5090561;28;20206;-73
2023/07/13 05:39:11;;;;;;;10.48;4.60;;;;;;;29.13;72.25;99142.28;5090622;28;20681;-76
2023/07/13 05:41:38;;;;;;;7.18;4.15;;;;;;;29.32;71.75;99146.34;5090243;28;20198;-73
2023/07/13 05:44:05;;;;;;;9.25;4.65;;;;;;;29.45;72.60;99151.38;5086088;28;20604;-73
2023/07/13 05:46:32;;;;;;;8.18;4.30;;;;;;;29.61;69.34;99149.84;5089871;28;20189;-73
2023/07/13 05:48:59;;;;;;;9.98;4.72;;;;;;;29.70;68.00;99152.94;5090094;28;20210;-74
2023/07/13 05:51:26;;;;;;;14.48;4.55;;;;;;;29.81;70.59;99149.47;5090133;28;20202;-75
2023/07/13 05:53:53;;;;;;;7.05;4.50;;;;;;;29.95;71.40;99160.53;5090168;28;20214;-75
2023/07/13 05:56:21;;;;;;;5.97;4.22;;;;;;;30.03;71.35;99162.00;5089740;28;20202;-75
2023/07/13 05:58:49;;;;;;;5.85;4.25;;;;;;;30.09;68.55;99166.34;5090395;28;20209;-74
2023/07/13 06:01:17;;;;;;;8.93;4.32;;;;;;;30.24;65.22;99169.25;5075596;28;20658;-74
2023/07/13 06:03:43;;;;;;;5.57;4.18;;;;;;;30.44;67.68;99174.88;5069654;28;20290;-74
2023/07/13 06:06:11;;;;;;;5.35;4.10;;;;;;;30.55;65.00;99175.88;5069451;28;20199;-74
2023/07/13 06:08:39;;;;;;;5.82;4.00;;;;;;;30.73;67.01;99172.19;5069200;28;20614;-74
2023/07/13 06:11:07;;;;;;;6.57;4.55;;;;;;;30.77;64.45;99175.13;5069553;28;20213;-74
2023/07/13 06:13:35;;;;;;;6.78;4.35;;;;;;;30.80;62.68;99177.31;5069264;28;20203;-74
2023/07/13 06:16:05;;;;;;;7.30;4.63;;;;;;;30.94;63.58;99175.16;5069183;28;20222;-74
2023/07/13 06:18:32;;;;;;;6.47;4.20;;;;;;;31.01;61.60;99173.13;5071915;28;20210;-74
2023/07/13 06:20:59;;;;;;;7.43;4.50;;;;;;;31.12;63.45;99174.88;5069180;28;20210;-74
2023/07/13 06:23:27;;;;;;;8.95;4.55;;;;;;;31.33;62.42;99171.50;5069089;28;20210;-74
2023/07/13 06:25:53;;;;;;;5.90;4.47;;;;;;;31.50;62.48;99176.72;5071055;28;20198;-74
2023/07/13 06:28:20;;;;;;;7.22;4.18;;;;;;;31.43;60.69;99180.63;5077701;28;20738;-75
2023/07/13 06:30:49;;;;;;;6.88;4.63;;;;;;;31.61;62.06;99185.59;5089119;28;20597;-74
2023/07/13 06:33:16;;;;;;;6.07;4.45;;;;;;;31.82;65.29;99185.81;5076008;28;20210;-74
2023/07/13 06:35:45;;;;;;;7.82;5.22;;;;;;;31.87;58.47;99180.59;5069521;28;20206;-75
2023/07/13 06:38:11;;;;;;;6.43;4.57;;;;;;;31.98;58.83;99179.69;5069487;28;20690;-75
2023/07/13 06:40:38;;;;;;;6.78;4.25;;;;;;;32.13;62.48;99184.34;5068982;28;20210;-75
2023/07/13 06:43:05;;;;;;;7.30;4.93;;;;;;;32.38;63.92;99175.84;5070547;28;20213;-74
2023/07/13 06:45:36;;;;;;;6.40;4.55;;;;;;;32.45;56.85;99174.59;5082516;28;20230;-76
2023/07/13 06:48:05;;;;;;;98.78;54.53;;;;;;;32.67;57.05;99179.81;5088958;28;20222;-77
2023/07/13 06:50:31;;;;;;;33.42;16.42;;;;;;;32.85;60.71;99175.19;5088783;28;20198;-76
2023/07/13 06:52:59;;;;;;;14.73;9.02;;;;;;;32.99;62.04;99171.06;5074390;28;20210;-76
2023/07/13 06:55:26;;;;;;;38.38;19.83;;;;;;;33.10;58.33;99177.19;5070881;28;20286;-76
2023/07/13 06:57:53;;;;;;;8.43;5.47;;;;;;;33.21;54.18;99180.72;5068406;28;20214;-76
2023/07/13 07:00:20;;;;;;;10.50;4.70;;;;;;;33.27;54.10;99177.03;5068381;28;20671;-78
2023/07/13 07:02:47;;;;;;;7.10;4.57;;;;;;;33.44;55.63;99167.03;5068181;28;20746;-77
2023/07/13 07:05:16;;;;;;;54.53;28.52;;;;;;;33.54;53.38;99172.44;5068575;28;20562;-76
2023/07/13 07:07:43;;;;;;;11.38;7.25;;;;;;;33.67;57.46;99170.34;5068228;28;20235;-76
2023/07/13 07:10:10;;;;;;;12.95;7.63;;;;;;;33.73;54.16;99174.59;5069885;28;20198;-76
2023/07/13 07:12:37;;;;;;;6.00;4.13;;;;;;;33.79;51.59;99181.50;5068404;28;20596;-76
2023/07/13 07:15:04;;;;;;;6.38;4.68;;;;;;;33.82;56.68;99178.34;5068645;28;20198;-76
2023/07/13 07:17:31;;;;;;;6.50;4.70;;;;;;;34.00;52.89;99180.50;5083385;28;20210;-76
2023/07/13 07:19:58;;;;;;;7.93;4.53;;;;;;;34.22;56.75;99176.84;5085213;28;20689;-77
2023/07/13 07:22:27;;;;;;;6.65;4.07;;;;;;;34.23;50.79;99178.44;5084799;28;20194;-74
2023/07/13 07:24:54;;;;;;;7.57;5.10;;;;;;;34.51;56.34;99173.69;5085102;28;20614;-76
2023/07/13 07:27:21;;;;;;;9.27;4.45;;;;;;;34.63;50.53;99182.19;5085410;28;20206;-75
2023/07/13 07:29:48;;;;;;;6.93;4.90;;;;;;;34.69;54.20;99181.91;5087829;28;20331;-76
2023/07/13 07:32:15;;;;;;;28.02;17.98;;;;;;;34.88;51.89;99179.53;5088090;28;20206;-74
2023/07/13 07:34:43;;;;;;;8.45;5.47;;;;;;;35.06;48.80;99175.53;5075325;28;20195;-77
2023/07/13 07:37:13;;;;;;;5.05;4.20;;;;;;;35.10;50.93;99181.09;5075318;28;20198;-76
2023/07/13 07:39:41;;;;;;;7.38;4.35;;;;;;;35.16;49.62;99174.69;5087855;28;20201;-76
2023/07/13 07:42:08;;;;;;;7.03;4.32;;;;;;;35.29;55.10;99174.13;5083744;28;20230;-75
2023/07/13 07:44:35;;;;;;;5.53;4.18;;;;;;;35.28;48.94;99177.84;5067704;28;20620;-77
2023/07/13 07:47:02;;;;;;;7.97;4.35;;;;;;;35.29;45.71;99187.41;5075677;28;20595;-76
2023/07/13 07:49:29;;;;;;;7.45;4.25;;;;;;;35.53;49.27;99181.47;5087610;28;20265;-76
2023/07/13 07:51:56;;;;;;;5.78;4.07;;;;;;;35.61;46.18;99178.28;5087505;28;20733;-76
2023/07/13 07:54:22;;;;;;;7.50;4.63;;;;;;;35.71;47.57;99183.53;5087556;28;20214;-76
2023/07/13 07:56:51;;;;;;;6.28;4.13;;;;;;;35.97;48.60;99178.06;5087421;28;20206;-76
2023/07/13 07:59:17;;;;;;;5.95;4.28;;;;;;;35.80;45.72;99173.91;5081861;28;20213;-76
2023/07/13 08:01:46;;;;;;;6.82;4.43;;;;;;;36.05;48.08;99174.88;5073908;28;20202;-78
2023/07/13 08:04:12;;;;;;;5.88;4.15;;;;;;;36.18;47.65;99171.56;5086965;28;20301;-76
2023/07/13 08:06:39;;;;;;;4.95;3.85;;;;;;;36.46;50.25;99170.03;5087643;28;20205;-76
2023/07/13 08:09:07;;;;;;;6.95;4.43;;;;;;;36.53;46.85;99169.72;5087383;28;20226;-75
2023/07/13 08:11:34;;;;;;;5.85;4.30;;;;;;;36.81;46.94;99162.81;5087686;28;20255;-75
2023/07/13 08:14:03;;;;;;;7.25;4.20;;;;;;;36.95;43.09;99160.28;5087470;28;20395;-76
2023/07/13 08:16:30;;;;;;;6.53;4.55;;;;;;;36.88;43.59;99171.25;5087837;28;20206;-76
2023/07/13 08:18:56;;;;;;;6.43;4.80;;;;;;;37.00;43.39;99181.53;5087718;28;20202;-75
2023/07/13 08:21:23;;;;;;;8.63;4.35;;;;;;;37.01;43.62;99175.16;5087393;28;20670;-76
2023/07/13 08:23:50;;;;;;;8.02;4.68;;;;;;;37.07;42.26;99171.34;5087340;28;20198;-76
2023/07/13 08:26:17;;;;;;;6.50;4.65;;;;;;;37.01;42.29;99177.03;5087423;28;20213;-76
2023/07/13 08:28:44;;;;;;;5.75;4.15;;;;;;;37.09;41.73;99171.06;5087218;28;20229;-76
2023/07/13 08:31:13;;;;;;;8.65;5.57;;;;;;;37.25;41.11;99164.47;5085570;28;20235;-77
2023/07/13 08:33:40;;;;;;;7.43;4.47;;;;;;;37.50;44.83;99171.41;5082810;28;20763;-76
2023/07/13 08:36:08;;;;;;;10.43;4.18;;;;;;;37.51;44.00;99162.31;5087639;28;20202;-76
2023/07/13 08:38:35;;;;;;;6.93;4.25;;;;;;;37.56;43.48;99164.13;5087447;28;20205;-76
2023/07/13 08:41:10;;;;;;;7.10;4.18;;;;;;;37.47;40.84;99166.66;5087154;28;20409;-76
2023/07/13 08:43:38;;;;;;;6.45;4.10;;;;;;;37.66;39.66;99173.88;5087313;28;20198;-76
2023/07/13 08:46:13;;;;;;;7.18;4.45;;;;;;;37.91;46.65;99168.19;5087862;28;20229;-76
2023/07/13 08:48:46;;;;;;;6.20;4.28;;;;;;;38.03;44.33;99173.09;5084199;28;20252;-76
2023/07/13 08:51:28;;;;;;;7.38;4.25;;;;;;;38.13;40.76;99182.81;5088042;28;20670;-76
2023/07/13 08:54:00;;;;;;;6.80;4.75;;;;;;;37.85;41.66;99182.69;5080979;28;20240;-76
2023/07/13 08:56:29;;;;;;;6.50;4.43;;;;;;;37.87;42.40;99180.50;5083935;28;20203;-76
2023/07/13 08:58:59;;;;;;;8.93;4.32;;;;;;;37.94;40.78;99175.63;5082266;28;20186;-76
2023/07/13 09:01:32;;;;;;;9.10;4.68;;;;;;;38.10;41.76;99180.75;5075953;28;20195;-76
2023/07/13 09:04:15;;;;;;;6.95;4.10;;;;;;;38.01;41.49;99178.72;5089322;28;20267;-76
2023/07/13 09:06:50;;;;;;;7.75;4.57;;;;;;;38.12;40.94;99173.25;5090546;28;20518;-76
2023/07/13 09:09:27;;;;;;;8.13;4.63;;;;;;;38.17;38.72;99175.84;5090698;28;20647;-76
2023/07/13 09:12:01;;;;;;;9.80;4.90;;;;;;;38.29;38.42;99176.16;5086096;28;20661;-76
2023/07/13 09:14:39;;;;;;;7.20;4.53;;;;;;;38.52;40.31;99184.34;5070239;28;20215;-76
2023/07/13 09:17:12;;;;;;;6.63;4.55;;;;;;;38.57;41.15;99176.25;5073963;28;20222;-76
2023/07/13 09:19:41;;;;;;;8.50;4.35;;;;;;;38.67;40.01;99176.09;5090450;28;20202;-76
2023/07/13 09:22:18;;;;;;;7.05;4.47;;;;;;;38.69;38.10;99176.56;5090282;28;20197;-76
2023/07/13 09:24:55;;;;;;;7.72;4.57;;;;;;;38.89;40.35;99189.59;5090145;28;20587;-76
2023/07/13 09:27:25;;;;;;;6.63;4.50;;;;;;;38.78;38.43;99188.19;5090305;28;20202;-76
2023/07/13 09:30:02;;;;;;;7.57;5.10;;;;;;;39.15;43.84;99181.09;5090276;28;20225;-76
2023/07/13 09:32:30;;;;;;;7.85;4.43;;;;;;;39.08;37.66;99175.38;5090368;28;20189;-76
2023/07/13 09:35:00;;;;;;;8.73;4.50;;;;;;;39.07;41.23;99173.75;5090161;28;20643;-76
2023/07/13 09:37:32;;;;;;;12.00;4.90;;;;;;;39.04;40.80;99169.84;5090251;28;20208;-76
2023/07/13 09:40:00;;;;;;;7.55;4.50;;;;;;;39.14;39.18;99169.63;5089595;28;20320;-76
2023/07/13 09:42:28;;;;;;;9.43;4.78;;;;;;;39.51;43.21;99162.47;5089944;28;20409;-76
2023/07/13 09:44:57;;;;;;;7.78;5.13;;;;;;;39.70;42.31;99165.00;5088117;28;20694;-76
2023/07/13 09:47:27;;;;;;;8.18;4.95;;;;;;;39.38;36.84;99174.75;5088131;28;20208;-76
2023/07/13 09:50:00;;;;;;;6.25;4.50;;;;;;;39.51;37.19;99167.03;5088012;28;20229;-76
2023/07/13 09:52:28;;;;;;;7.18;4.43;;;;;;;39.40;37.48;99171.81;5088357;28;20204;-76
2023/07/13 09:54:58;;;;;;;9.25;4.45;;;;;;;39.22;37.46;99180.72;5088865;28;20198;-76
2023/07/13 09:57:27;;;;;;;6.85;4.28;;;;;;;39.32;41.74;99175.97;5089463;28;20213;-75
2023/07/13 09:59:58;;;;;;;7.28;4.38;;;;;;;39.54;40.02;99177.13;5089594;28;20216;-76
2023/07/13 10:02:28;;;;;;;8.40;4.13;;;;;;;39.58;38.34;99183.47;5089617;28;20283;-76
2023/07/13 10:05:02;;;;;;;7.88;4.68;;;;;;;39.58;38.75;99194.16;5089436;28;20194;-76
2023/07/13 10:07:30;;;;;;;6.78;4.32;;;;;;;39.65;36.11;99193.75;5087520;28;20203;-76
2023/07/13 10:10:00;;;;;;;8.70;4.63;;;;;;;39.65;38.84;99189.22;5085689;28;20233;-75
2023/07/13 10:12:28;;;;;;;9.70;4.72;;;;;;;39.71;37.53;99190.69;5087178;28;20205;-74
2023/07/13 10:14:57;;;;;;;6.90;4.47;;;;;;;39.68;36.10;99188.59;5089330;28;20434;-75
2023/07/13 10:17:30;;;;;;;7.88;4.63;;;;;;;39.59;36.09;99179.69;5089138;28;20200;-74
2023/07/13 10:20:04;;;;;;;7.35;4.40;;;;;;;39.81;36.93;99166.38;5089425;28;20286;-74
2023/07/13 10:22:40;;;;;;;6.63;4.10;;;;;;;39.94;36.49;99158.59;5088658;28;20619;-74
2023/07/13 10:25:16;;;;;;;7.32;4.70;;;;;;;39.81;36.39;99163.69;5089204;28;20685;-74
2023/07/13 10:27:44;;;;;;;6.03;4.03;;;;;;;39.90;36.50;99149.59;5089212;28;20266;-74
2023/07/13 10:30:17;;;;;;;9.43;4.32;;;;;;;39.80;37.07;99142.59;5088799;28;20236;-74
2023/07/13 10:32:44;;;;;;;6.50;4.05;;;;;;;39.66;34.52;99137.25;5089293;28;20205;-74
2023/07/13 10:35:15;;;;;;;6.35;4.32;;;;;;;39.68;35.37;99127.03;5088806;28;20197;-74
2023/07/13 10:37:49;;;;;;;7.25;4.38;;;;;;;39.79;35.77;99117.69;5089206;28;20209;-74
2023/07/13 10:40:22;;;;;;;5.75;4.07;;;;;;;39.94;35.80;99131.81;5088870;28;20600;-75
2023/07/13 10:42:53;;;;;;;6.43;4.07;;;;;;;40.11;36.99;99121.22;5088837;28;20196;-74
2023/07/13 10:45:23;;;;;;;8.55;4.30;;;;;;;40.26;38.36;99120.88;5088881;28;20201;-74
2023/07/13 10:47:52;;;;;;;7.32;4.43;;;;;;;40.24;36.92;99123.06;5089012;28;20228;-75
2023/07/13 10:50:24;;;;;;;5.70;3.78;;;;;;;40.11;34.15;99126.56;5088509;28;20237;-77
2023/07/13 10:52:54;;;;;;;6.70;4.50;;;;;;;40.00;35.13;99126.06;5088782;28;20678;-74
2023/07/13 10:55:39;;;;;;;6.32;4.47;;;;;;;40.32;34.94;99120.72;5088618;28;20692;-74
2023/07/13 10:58:14;;;;;;;6.50;4.32;;;;;;;40.33;36.43;99111.63;5088746;28;20213;-74
2023/07/13 11:00:49;;;;;;;6.90;4.38;;;;;;;40.09;33.88;99118.06;5088812;28;20209;-74
2023/07/13 11:03:19;;;;;;;8.75;4.60;;;;;;;40.23;37.74;99108.09;5088556;28;20746;-74
2023/07/13 11:05:52;;;;;;;7.75;4.70;;;;;;;39.89;36.52;99099.84;5082452;28;20190;-74
2023/07/13 11:08:32;;;;;;;8.38;4.57;;;;;;;40.20;37.01;99092.63;5076649;28;20629;-74
2023/07/13 11:10:59;;;;;;;8.43;4.50;;;;;;;40.11;36.13;99082.94;5083113;28;20212;-74
2023/07/13 11:14:04;;;;;;;8.65;4.35;;;;;;;40.14;34.33;99077.75;5079304;28;20194;-75
2023/07/13 11:16:43;;;;;;;8.23;4.80;;;;;;;40.19;35.07;99079.56;5081384;28;20681;-74
2023/07/13 11:19:38;;;;;;;6.07;3.97;;;;;;;39.92;35.91;99085.84;5081162;28;20201;-75
2023/07/13 11:22:15;;;;;;;6.70;4.45;;;;;;;39.77;33.49;99079.75;5081357;28;20198;-75
2023/07/13 11:24:54;;;;;;;6.10;4.15;;;;;;;40.02;36.67;99069.50;5079192;28;20186;-74
2023/07/13 11:27:39;;;;;;;6.30;4.13;;;;;;;39.99;37.74;99059.41;5082445;28;20229;-74
2023/07/13 11:30:22;;;;;;;5.35;4.18;;;;;;;39.99;34.73;99046.00;5088111;28;20228;-74
2023/07/13 11:32:52;;;;;;;10.77;4.90;;;;;;;39.95;36.73;99037.03;5087942;28;20661;-74
2023/07/13 11:35:24;;;;;;;7.72;4.40;;;;;;;40.04;36.14;99040.53;5087969;28;20202;-74
2023/07/13 11:37:53;;;;;;;9.35;4.38;;;;;;;40.04;35.64;99040.53;5081920;28;20243;-75
2023/07/13 11:40:24;;;;;;;6.95;3.90;;;;;;;40.02;34.48;99040.03;5079556;28;20202;-74